createdAt,value
2017-12-31T00:01:42.931Z,10.30
2017-12-31T00:04:09.191Z,10.30
2017-12-31T00:06:35.599Z,10.30
2017-12-31T00:09:03.962Z,10.30
2017-12-31T00:11:30.245Z,10.40
2017-12-31T00:13:56.492Z,10.40
2017-12-31T00:16:23.318Z,10.20
2017-12-31T00:18:49.601Z,10.20
2017-12-31T00:21:15.818Z,10.20
2017-12-31T00:23:42.122Z,10.20
2017-12-31T00:26:08.341Z,10.20
2017-12-31T00:28:34.508Z,10.30
2017-12-31T00:31:00.699Z,10.20
2017-12-31T00:33:26.894Z,10.20
2017-12-31T00:35:53.103Z,10.10
2017-12-31T00:38:19.298Z,10.00
2017-12-31T00:40:45.491Z,9.80
2017-12-31T00:43:11.681Z,9.80
2017-12-31T00:45:37.817Z,9.70
2017-12-31T00:48:04.032Z,9.60
2017-12-31T00:50:30.276Z,9.60
2017-12-31T00:52:56.515Z,9.50
2017-12-31T00:55:22.751Z,9.40
2017-12-31T00:57:48.942Z,9.40
2017-12-31T01:00:15.214Z,9.40
2017-12-31T01:02:41.457Z,9.30
2017-12-31T01:05:07.741Z,9.30
2017-12-31T01:07:34.845Z,9.30
2017-12-31T01:10:01.042Z,9.30
2017-12-31T01:12:27.262Z,9.30
2017-12-31T01:14:53.432Z,9.20
2017-12-31T01:17:19.608Z,9.30
2017-12-31T01:19:45.786Z,9.20
2017-12-31T01:22:11.952Z,9.20
2017-12-31T01:24:38.163Z,9.10
2017-12-31T01:27:04.373Z,9.10
2017-12-31T01:29:30.537Z,9.00
2017-12-31T01:31:56.718Z,9.00
2017-12-31T01:34:22.866Z,9.00
2017-12-31T01:36:49.060Z,9.00
2017-12-31T01:39:15.216Z,8.90
2017-12-31T01:41:42.106Z,8.90
2017-12-31T01:44:08.274Z,8.90
2017-12-31T01:46:34.460Z,9.00
2017-12-31T01:49:01.360Z,9.00
2017-12-31T01:51:27.516Z,9.00
2017-12-31T01:53:53.693Z,9.00
2017-12-31T01:56:19.840Z,9.00
2017-12-31T01:58:46.018Z,8.90
2017-12-31T02:01:12.933Z,8.90
2017-12-31T02:03:39.093Z,8.90
2017-12-31T02:06:05.248Z,8.90
2017-12-31T02:08:31.500Z,8.90
2017-12-31T02:10:57.709Z,8.90
2017-12-31T02:13:23.876Z,8.90
2017-12-31T02:15:50.030Z,8.90
2017-12-31T02:18:16.197Z,8.90
2017-12-31T02:20:42.344Z,8.80
2017-12-31T02:23:08.552Z,8.80
2017-12-31T02:25:34.725Z,8.80
2017-12-31T02:28:01.647Z,8.80
2017-12-31T02:30:27.847Z,8.80
2017-12-31T02:32:53.995Z,8.70
2017-12-31T02:35:20.172Z,8.70
2017-12-31T02:37:47.143Z,8.60
2017-12-31T02:40:13.356Z,8.60
2017-12-31T02:42:40.326Z,8.70
2017-12-31T02:45:06.491Z,8.60
2017-12-31T02:47:33.501Z,8.60
2017-12-31T02:49:59.720Z,8.60
2017-12-31T02:52:25.943Z,8.60
2017-12-31T02:54:52.113Z,8.60
2017-12-31T02:57:18.273Z,8.60
2017-12-31T02:59:44.455Z,8.50
2017-12-31T03:02:10.615Z,8.50
2017-12-31T03:04:36.826Z,8.50
2017-12-31T03:07:02.981Z,8.50
2017-12-31T03:09:29.129Z,8.50
2017-12-31T03:11:55.325Z,8.40
2017-12-31T03:14:21.473Z,8.40
2017-12-31T03:16:47.654Z,8.40
2017-12-31T03:19:13.845Z,8.40
2017-12-31T03:21:40.015Z,8.30
2017-12-31T03:24:06.190Z,8.30
2017-12-31T03:26:33.130Z,8.20
2017-12-31T03:28:59.353Z,8.20
2017-12-31T03:31:26.325Z,8.30
2017-12-31T03:33:52.476Z,8.20
2017-12-31T03:36:18.641Z,8.20
2017-12-31T03:38:44.801Z,8.20
2017-12-31T03:41:10.986Z,8.20
2017-12-31T03:43:37.175Z,8.20
2017-12-31T03:46:03.359Z,8.20
2017-12-31T03:48:29.526Z,8.30
2017-12-31T03:50:55.720Z,8.30
2017-12-31T03:53:21.899Z,8.30
2017-12-31T03:55:48.109Z,8.30
2017-12-31T03:58:14.288Z,8.30
2017-12-31T04:00:40.435Z,8.40
2017-12-31T04:03:06.618Z,8.40
2017-12-31T04:05:32.810Z,8.40
2017-12-31T04:07:59.988Z,8.60
2017-12-31T04:10:26.163Z,8.70
2017-12-31T04:12:52.329Z,8.90
2017-12-31T04:15:18.512Z,9.10
2017-12-31T04:17:44.695Z,9.30
2017-12-31T04:20:10.845Z,9.40
2017-12-31T04:22:37.040Z,9.50
2017-12-31T04:25:03.249Z,9.70
2017-12-31T04:27:29.405Z,10.10
2017-12-31T04:29:56.329Z,10.50
2017-12-31T04:32:22.488Z,10.50
2017-12-31T04:34:49.401Z,10.90
2017-12-31T04:37:15.597Z,10.90
2017-12-31T04:39:41.786Z,10.90
2017-12-31T04:42:07.943Z,10.90
2017-12-31T04:44:34.867Z,11.10
2017-12-31T04:47:01.034Z,11.10
2017-12-31T04:49:27.213Z,11.10
2017-12-31T04:51:53.405Z,11.20
2017-12-31T04:54:20.309Z,11.20
2017-12-31T04:56:46.468Z,11.10
2017-12-31T04:59:12.636Z,11.10
2017-12-31T05:01:38.819Z,11.10
2017-12-31T05:04:05.726Z,11.20
2017-12-31T05:06:31.920Z,11.20
2017-12-31T05:08:58.057Z,11.20
2017-12-31T05:11:24.215Z,11.30
2017-12-31T05:13:50.364Z,11.30
2017-12-31T05:16:16.563Z,11.30
2017-12-31T05:18:42.761Z,11.30
2017-12-31T05:21:08.935Z,11.30
2017-12-31T05:23:35.093Z,11.50
2017-12-31T05:26:01.273Z,11.50
2017-12-31T05:28:27.432Z,11.70
2017-12-31T05:30:53.648Z,11.60
2017-12-31T05:33:20.544Z,11.90
2017-12-31T05:35:46.705Z,11.90
2017-12-31T05:38:12.846Z,11.80
2017-12-31T05:40:39.022Z,11.90
2017-12-31T05:43:05.232Z,12.00
2017-12-31T05:45:32.204Z,12.00
2017-12-31T05:47:58.400Z,11.90
2017-12-31T05:50:24.577Z,12.00
2017-12-31T05:52:50.727Z,11.90
2017-12-31T05:55:16.908Z,11.80
2017-12-31T05:57:43.098Z,11.80
2017-12-31T06:00:12.127Z,11.70
2017-12-31T06:02:38.287Z,11.80
2017-12-31T06:05:04.464Z,11.70
2017-12-31T06:07:30.627Z,11.90
2017-12-31T06:09:56.761Z,11.90
2017-12-31T06:12:22.964Z,11.90
2017-12-31T06:14:49.154Z,11.80
2017-12-31T06:17:15.329Z,11.90
2017-12-31T06:19:41.463Z,11.90
2017-12-31T06:22:07.620Z,11.90
2017-12-31T06:24:33.818Z,11.90
2017-12-31T06:26:59.977Z,11.80
2017-12-31T06:29:26.144Z,11.90
2017-12-31T06:31:52.311Z,11.90
2017-12-31T06:34:18.491Z,11.80
2017-12-31T06:36:44.633Z,11.80
2017-12-31T06:39:10.812Z,11.80
2017-12-31T06:41:36.969Z,11.90
2017-12-31T06:44:03.139Z,11.80
2017-12-31T06:46:30.046Z,11.80
2017-12-31T06:48:56.978Z,11.80
2017-12-31T06:51:23.156Z,11.80
2017-12-31T06:53:49.332Z,11.80
2017-12-31T06:56:15.492Z,11.90
2017-12-31T06:58:41.650Z,11.80
2017-12-31T07:01:07.853Z,11.80
2017-12-31T07:03:34.012Z,11.80
2017-12-31T07:06:00.166Z,11.70
2017-12-31T07:08:26.315Z,11.70
2017-12-31T07:10:53.232Z,11.70
2017-12-31T07:13:19.386Z,11.70
2017-12-31T07:15:45.588Z,11.60
2017-12-31T07:18:11.765Z,11.60
2017-12-31T07:20:37.936Z,11.50
2017-12-31T07:23:04.098Z,11.30
2017-12-31T07:25:30.267Z,11.40
2017-12-31T07:27:56.469Z,11.40
2017-12-31T07:30:22.652Z,11.40
2017-12-31T07:32:48.831Z,11.40
2017-12-31T07:35:15.012Z,11.30
2017-12-31T07:37:41.178Z,11.20
2017-12-31T07:40:07.363Z,11.20
2017-12-31T07:42:33.519Z,11.10
2017-12-31T07:44:59.835Z,11.20
2017-12-31T07:47:25.988Z,11.10
2017-12-31T07:49:52.149Z,11.20
2017-12-31T07:52:18.313Z,11.10
2017-12-31T07:54:44.520Z,11.20
2017-12-31T07:57:10.725Z,11.10
2017-12-31T07:59:36.938Z,11.10
2017-12-31T08:02:03.092Z,11.10
2017-12-31T08:04:29.248Z,11.00
2017-12-31T08:06:55.724Z,11.10
2017-12-31T08:09:21.909Z,11.10
2017-12-31T08:11:48.082Z,11.10
2017-12-31T08:14:14.272Z,11.10
2017-12-31T08:16:40.437Z,11.10
2017-12-31T08:19:06.616Z,11.10
2017-12-31T08:21:32.857Z,10.90
2017-12-31T08:23:59.062Z,10.90
2017-12-31T08:26:25.235Z,10.90
2017-12-31T08:28:51.442Z,10.90
2017-12-31T08:31:17.633Z,10.90
2017-12-31T08:33:43.809Z,11.00
2017-12-31T08:36:10.079Z,11.00
2017-12-31T08:38:36.287Z,11.00
2017-12-31T08:41:02.465Z,11.10
2017-12-31T08:43:28.868Z,11.10
2017-12-31T08:45:55.052Z,11.20
2017-12-31T08:48:21.282Z,11.20
2017-12-31T08:50:47.517Z,11.30
2017-12-31T08:53:13.698Z,11.30
2017-12-31T08:55:39.898Z,11.30
2017-12-31T08:58:06.123Z,11.40
2017-12-31T09:00:32.304Z,11.50
2017-12-31T09:02:58.501Z,11.40
2017-12-31T09:05:24.728Z,11.50
2017-12-31T09:07:50.926Z,11.50
2017-12-31T09:10:17.180Z,11.50
2017-12-31T09:12:43.382Z,11.60
2017-12-31T09:15:09.551Z,11.60
2017-12-31T09:17:36.545Z,11.80
2017-12-31T09:20:02.726Z,11.80
2017-12-31T09:22:28.945Z,11.90
2017-12-31T09:24:55.123Z,11.90
2017-12-31T09:27:21.312Z,11.90
2017-12-31T09:29:47.577Z,11.90
2017-12-31T09:32:14.572Z,12.00
2017-12-31T09:34:40.808Z,12.00
2017-12-31T09:37:06.966Z,12.00
2017-12-31T09:39:33.172Z,12.10
2017-12-31T09:41:59.347Z,12.20
2017-12-31T09:44:25.551Z,12.20
2017-12-31T09:46:51.723Z,12.20
2017-12-31T09:49:17.913Z,12.20
2017-12-31T09:51:44.108Z,12.30
2017-12-31T09:54:10.256Z,12.40
2017-12-31T09:56:36.463Z,12.50
2017-12-31T09:59:03.447Z,12.60
2017-12-31T10:01:29.598Z,12.50
2017-12-31T10:03:55.821Z,12.50
2017-12-31T10:06:21.958Z,12.50
2017-12-31T10:08:48.123Z,12.50
2017-12-31T10:11:14.342Z,12.50
2017-12-31T10:13:40.571Z,12.60
2017-12-31T10:16:06.785Z,12.60
2017-12-31T10:18:32.948Z,12.60
2017-12-31T10:20:59.149Z,12.50
2017-12-31T10:23:25.361Z,12.60
2017-12-31T10:25:51.558Z,12.60
2017-12-31T10:28:17.746Z,12.60
2017-12-31T10:30:43.935Z,12.60
2017-12-31T10:33:10.147Z,12.70
2017-12-31T10:35:36.386Z,12.50
2017-12-31T10:38:02.616Z,12.50
2017-12-31T10:40:28.816Z,12.50
2017-12-31T10:42:55.011Z,12.60
2017-12-31T10:45:21.189Z,12.60
2017-12-31T10:47:47.402Z,12.70
2017-12-31T10:50:14.427Z,12.70
2017-12-31T10:52:40.683Z,12.70
2017-12-31T10:55:06.875Z,12.70
2017-12-31T10:57:33.087Z,12.70
2017-12-31T10:59:59.269Z,12.70
2017-12-31T11:02:25.465Z,12.70
2017-12-31T11:04:51.680Z,12.80
2017-12-31T11:07:17.866Z,12.70
2017-12-31T11:09:44.090Z,12.60
2017-12-31T11:12:10.278Z,12.60
2017-12-31T11:14:36.484Z,12.60
2017-12-31T11:17:02.684Z,12.50
2017-12-31T11:19:28.890Z,12.60
2017-12-31T11:21:55.251Z,12.60
2017-12-31T11:24:21.404Z,12.60
2017-12-31T11:26:48.491Z,12.50
2017-12-31T11:29:14.943Z,12.30
2017-12-31T11:31:41.219Z,12.10
2017-12-31T11:34:07.450Z,12.00
2017-12-31T11:36:33.663Z,12.10
2017-12-31T11:38:59.885Z,12.00
2017-12-31T11:41:26.061Z,11.90
2017-12-31T11:43:52.446Z,11.90
2017-12-31T11:46:18.629Z,12.00
2017-12-31T11:48:44.815Z,11.90
2017-12-31T11:51:11.010Z,11.90
2017-12-31T11:53:37.185Z,11.70
2017-12-31T11:56:04.235Z,11.70
2017-12-31T11:58:30.669Z,11.60
2017-12-31T12:00:56.910Z,11.70
2017-12-31T12:03:23.105Z,11.70
2017-12-31T12:05:49.301Z,11.60
2017-12-31T12:08:18.699Z,11.50
2017-12-31T12:10:44.954Z,11.40
2017-12-31T12:13:11.161Z,11.40
2017-12-31T12:15:37.361Z,11.30
2017-12-31T12:18:04.294Z,11.20
2017-12-31T12:20:30.498Z,11.20
2017-12-31T12:25:54.204Z,11.30
2017-12-31T12:28:20.373Z,11.20
2017-12-31T12:30:46.528Z,11.30
2017-12-31T12:33:12.706Z,11.40
2017-12-31T12:35:38.886Z,11.50
2017-12-31T12:38:05.096Z,11.50
2017-12-31T12:40:32.028Z,11.50
2017-12-31T12:42:58.186Z,11.50
2017-12-31T12:45:24.445Z,11.50
2017-12-31T12:47:50.620Z,11.40
2017-12-31T12:50:16.826Z,11.40
2017-12-31T12:52:43.061Z,11.40
2017-12-31T12:55:09.245Z,11.40
2017-12-31T12:57:36.178Z,11.30
2017-12-31T13:00:03.849Z,11.30
2017-12-31T13:02:30.042Z,11.30
2017-12-31T13:04:56.184Z,11.30
2017-12-31T13:07:22.391Z,11.30
2017-12-31T13:09:48.837Z,11.40
2017-12-31T13:12:15.017Z,11.30
2017-12-31T13:14:41.277Z,11.30
2017-12-31T13:17:07.522Z,11.30
2017-12-31T13:19:33.747Z,11.30
2017-12-31T13:22:00.837Z,11.20
2017-12-31T13:24:27.068Z,11.20
2017-12-31T13:26:53.281Z,11.20
2017-12-31T13:29:19.537Z,11.20
2017-12-31T13:31:45.746Z,11.30
2017-12-31T13:34:11.969Z,11.30
2017-12-31T13:36:38.914Z,11.30
2017-12-31T13:39:05.145Z,11.30
2017-12-31T13:41:32.156Z,11.40
2017-12-31T13:43:58.514Z,11.40
2017-12-31T13:46:24.781Z,11.40
2017-12-31T13:48:51.056Z,11.40
2017-12-31T13:51:17.238Z,11.40
2017-12-31T13:53:43.649Z,11.40
2017-12-31T13:56:09.919Z,11.40
2017-12-31T13:58:36.099Z,11.40
2017-12-31T14:01:02.455Z,11.40
2017-12-31T14:03:28.828Z,11.30
2017-12-31T14:05:55.097Z,11.40
2017-12-31T14:08:21.333Z,11.40
2017-12-31T14:10:47.564Z,11.40
2017-12-31T14:13:13.782Z,11.40
2017-12-31T14:15:40.284Z,11.30
2017-12-31T14:18:06.619Z,11.30
2017-12-31T14:20:33.699Z,11.30
2017-12-31T14:22:59.929Z,11.30
2017-12-31T14:25:26.212Z,11.30
2017-12-31T14:27:52.681Z,11.30
2017-12-31T14:30:19.122Z,11.30
2017-12-31T14:32:45.757Z,11.30
2017-12-31T14:35:11.989Z,11.30
2017-12-31T14:37:38.189Z,11.30
2017-12-31T14:40:04.409Z,11.30
2017-12-31T14:42:30.584Z,11.30
2017-12-31T14:44:56.790Z,11.30
2017-12-31T14:47:23.302Z,11.30
2017-12-31T14:49:49.601Z,11.20
2017-12-31T14:52:15.799Z,11.10
2017-12-31T14:54:41.970Z,11.10
2017-12-31T14:57:08.191Z,10.90
2017-12-31T14:59:34.452Z,10.80
2017-12-31T15:02:00.669Z,10.60
2017-12-31T15:04:26.866Z,10.50
2017-12-31T15:06:53.069Z,10.40
2017-12-31T15:09:19.360Z,10.30
2017-12-31T15:11:45.551Z,10.20
2017-12-31T15:14:12.612Z,10.00
2017-12-31T15:16:38.879Z,10.00
2017-12-31T15:19:05.060Z,10.00
2017-12-31T15:21:31.289Z,9.80
2017-12-31T15:23:57.826Z,9.90
2017-12-31T15:26:24.041Z,9.90
2017-12-31T15:28:50.244Z,9.80
2017-12-31T15:31:16.453Z,9.80
2017-12-31T15:33:42.916Z,9.80
2017-12-31T15:36:09.182Z,9.80
2017-12-31T15:38:35.456Z,9.70
2017-12-31T15:41:02.423Z,9.60
2017-12-31T15:43:28.659Z,9.60
2017-12-31T15:45:54.850Z,9.60
2017-12-31T15:48:21.043Z,9.60
2017-12-31T15:50:47.320Z,9.60
2017-12-31T15:53:14.276Z,9.50
2017-12-31T15:55:40.539Z,9.50
2017-12-31T15:58:07.455Z,9.50
2017-12-31T16:00:33.659Z,9.40
2017-12-31T16:02:59.926Z,9.50
2017-12-31T16:05:26.296Z,9.50
2017-12-31T16:07:52.552Z,9.50
2017-12-31T16:10:18.923Z,9.50
2017-12-31T16:12:45.319Z,9.40
2017-12-31T16:15:11.753Z,9.40
2017-12-31T16:17:38.118Z,9.30
2017-12-31T16:20:04.508Z,9.30
2017-12-31T16:22:30.760Z,9.20
2017-12-31T16:24:57.121Z,9.30
2017-12-31T16:27:23.478Z,9.20
2017-12-31T16:29:49.773Z,9.30
2017-12-31T16:32:16.196Z,9.20
2017-12-31T16:34:42.418Z,9.20
2017-12-31T16:37:08.647Z,9.20
2017-12-31T16:39:41.540Z,9.20
2017-12-31T16:42:07.738Z,9.20
2017-12-31T16:44:33.945Z,9.10
2017-12-31T16:47:00.224Z,9.00
2017-12-31T16:49:26.382Z,9.00
2017-12-31T16:51:52.575Z,9.00
2017-12-31T16:54:18.765Z,9.00
2017-12-31T16:56:44.918Z,8.90
2017-12-31T16:59:11.227Z,9.00
2017-12-31T17:04:31.709Z,9.00
2017-12-31T17:06:57.887Z,8.90
2017-12-31T17:09:24.131Z,8.90
2017-12-31T17:11:50.360Z,8.90
2017-12-31T17:14:16.537Z,8.90
2017-12-31T17:16:42.910Z,8.90
2017-12-31T17:19:09.102Z,8.90
2017-12-31T17:21:35.294Z,8.90
2017-12-31T17:39:01.183Z,8.90
2017-12-31T17:41:27.336Z,8.90
2017-12-31T17:43:53.502Z,9.00
2017-12-31T17:46:22.862Z,9.00
2017-12-31T17:48:49.181Z,9.10
2017-12-31T17:51:16.917Z,9.10
2017-12-31T18:02:34.185Z,9.20
2017-12-31T18:05:00.537Z,9.20
2017-12-31T18:07:27.481Z,9.20
2017-12-31T18:09:53.729Z,9.20
2017-12-31T18:12:19.940Z,9.30
2017-12-31T18:14:46.222Z,9.20
2017-12-31T18:17:12.506Z,9.20
2017-12-31T18:19:38.713Z,9.30
2017-12-31T18:22:06.578Z,9.20
2017-12-31T18:24:32.745Z,9.20
2017-12-31T18:26:58.982Z,9.20
2017-12-31T18:29:25.332Z,9.10
2017-12-31T18:31:52.380Z,9.20
2017-12-31T18:34:18.672Z,9.10
2017-12-31T18:36:44.969Z,9.20
2017-12-31T18:39:11.262Z,9.20
2017-12-31T18:41:38.292Z,9.20
2017-12-31T18:44:04.667Z,9.10
2017-12-31T18:46:31.278Z,9.10
2017-12-31T18:48:57.588Z,9.10
2017-12-31T18:51:23.857Z,9.10
2017-12-31T18:53:50.270Z,9.10
2017-12-31T18:56:16.702Z,9.00
2017-12-31T19:14:02.739Z,8.90
2017-12-31T19:16:28.920Z,8.80
2017-12-31T19:18:55.143Z,8.80
2017-12-31T19:21:21.404Z,8.80
2017-12-31T19:23:47.564Z,8.70
2017-12-31T19:26:13.759Z,8.70
2017-12-31T19:28:39.921Z,8.80
2017-12-31T19:31:06.106Z,8.80
2017-12-31T19:33:32.373Z,8.80
2017-12-31T19:35:59.482Z,8.90
2017-12-31T19:45:07.923Z,9.00
2017-12-31T19:47:34.169Z,9.20
2017-12-31T19:50:00.357Z,9.20
2017-12-31T19:52:26.509Z,9.30
2017-12-31T19:54:53.435Z,9.50
2017-12-31T19:57:19.666Z,9.50
2017-12-31T19:59:45.816Z,9.40
2017-12-31T20:02:21.481Z,9.10
2017-12-31T20:04:50.788Z,8.70
2017-12-31T20:07:17.041Z,8.40
2017-12-31T20:09:43.972Z,8.20
2017-12-31T20:12:10.179Z,8.10
2017-12-31T20:14:37.118Z,8.10
2017-12-31T20:17:03.330Z,8.10
2017-12-31T20:22:51.875Z,8.10
2017-12-31T20:25:18.794Z,8.10
2017-12-31T20:27:44.993Z,8.10
2017-12-31T20:30:11.190Z,8.20
2017-12-31T20:32:38.095Z,8.20
2017-12-31T20:35:04.330Z,8.20
2017-12-31T20:37:30.533Z,8.30
2017-12-31T20:39:56.744Z,8.40
2017-12-31T20:42:22.978Z,8.40
2017-12-31T20:44:49.196Z,8.40
2017-12-31T20:47:16.157Z,8.60
2017-12-31T20:49:42.359Z,8.50
2017-12-31T20:52:08.545Z,8.60
2017-12-31T20:54:34.747Z,8.60
2017-12-31T20:57:00.960Z,8.80
2017-12-31T20:59:27.149Z,8.80
2017-12-31T21:01:53.381Z,8.80
2017-12-31T21:04:22.949Z,8.90
2017-12-31T21:06:49.185Z,8.90
2017-12-31T21:09:15.456Z,9.00
2017-12-31T21:11:41.693Z,9.00
2017-12-31T21:14:08.100Z,9.00
2017-12-31T21:16:34.361Z,9.00
2017-12-31T21:19:00.551Z,9.00
2017-12-31T21:21:27.109Z,9.10
2017-12-31T21:23:53.304Z,9.10
2017-12-31T22:02:18.298Z,8.70
2017-12-31T22:04:44.617Z,8.80
2017-12-31T22:07:11.682Z,8.80
2017-12-31T22:09:37.976Z,8.80
2017-12-31T22:12:04.226Z,8.70
2017-12-31T22:14:30.635Z,8.60
2017-12-31T22:16:57.115Z,8.70
2017-12-31T22:19:23.495Z,8.50
2017-12-31T22:21:49.800Z,8.50
2017-12-31T22:24:16.120Z,8.50
2017-12-31T22:26:42.302Z,8.60
2017-12-31T22:29:08.467Z,8.40
2017-12-31T22:31:34.661Z,8.50
2017-12-31T22:34:00.872Z,8.30
2017-12-31T22:36:27.119Z,8.30
2017-12-31T22:38:53.545Z,8.30
2017-12-31T22:41:19.719Z,8.20
2017-12-31T22:43:45.941Z,8.20
2017-12-31T22:49:07.630Z,8.30
2017-12-31T22:51:33.882Z,8.30
2017-12-31T22:54:00.822Z,8.20
2017-12-31T22:56:27.019Z,8.20
2017-12-31T22:58:53.235Z,8.20
2017-12-31T23:01:19.391Z,8.30
2017-12-31T23:03:45.721Z,8.30
2017-12-31T23:06:12.029Z,8.40
2017-12-31T23:08:40.275Z,8.30
2017-12-31T23:11:06.506Z,8.20
2017-12-31T23:13:32.765Z,8.20
2017-12-31T23:15:59.755Z,8.10
2017-12-31T23:18:26.026Z,8.20
2017-12-31T23:20:52.301Z,8.20
2017-12-31T23:23:18.512Z,8.20
2017-12-31T23:25:44.801Z,8.10
2017-12-31T23:28:11.137Z,8.20
2017-12-31T23:34:00.281Z,8.20
2017-12-31T23:36:26.499Z,8.20
2017-12-31T23:38:52.838Z,8.30
2017-12-31T23:41:19.145Z,8.30
2017-12-31T23:43:45.383Z,8.20
2017-12-31T23:46:11.632Z,8.30
2017-12-31T23:48:37.836Z,8.20
2017-12-31T23:51:04.035Z,8.10
2017-12-31T23:53:30.285Z,8.10
